sensor_id;sensor_type;location;lat;lon;timestamp;pressure;altitude;pressure_sealevel;temperature;humidity
59650;BME280;46162;57.568;25.814;2024-02-21T00:01:07;100780.16;;;-1.77;100.00
59650;BME280;46162;57.568;25.814;2024-02-21T00:03:38;100784.28;;;-1.90;100.00
59650;BME280;46162;57.568;25.814;2024-02-21T00:06:06;100786.00;;;-1.89;100.00
59650;BME280;46162;57.568;25.814;2024-02-21T00:08:35;100787.31;;;-1.79;100.00
59650;BME280;46162;57.568;25.814;2024-02-21T00:11:03;100787.25;;;-1.78;100.00
59650;BME280;46162;57.568;25.814;2024-02-21T00:13:32;100786.56;;;-2.02;100.00
59650;BME280;46162;57.568;25.814;2024-02-21T00:16:01;100790.00;;;-2.00;100.00
59650;BME280;46162;57.568;25.814;2024-02-21T00:18:29;100793.16;;;-1.91;100.00
59650;BME280;46162;57.568;25.814;2024-02-21T00:20:59;100792.06;;;-2.06;100.00
59650;BME280;46162;57.568;25.814;2024-02-21T00:23:29;100794.09;;;-1.92;100.00
59650;BME280;46162;57.568;25.814;2024-02-21T00:25:57;100790.44;;;-1.90;100.00
59650;BME280;46162;57.568;25.814;2024-02-21T00:28:26;100793.75;;;-1.85;100.00
59650;BME280;46162;57.568;25.814;2024-02-21T00:30:55;100786.34;;;-1.78;100.00
59650;BME280;46162;57.568;25.814;2024-02-21T00:33:23;100784.50;;;-1.76;100.00
59650;BME280;46162;57.568;25.814;2024-02-21T00:35:52;100783.50;;;-1.74;100.00
59650;BME280;46162;57.568;25.814;2024-02-21T00:38:22;100789.50;;;-1.89;100.00
59650;BME280;46162;57.568;25.814;2024-02-21T00:40:51;100784.56;;;-1.97;100.00
59650;BME280;46162;57.568;25.814;2024-02-21T00:43:19;100775.41;;;-1.89;100.00
59650;BME280;46162;57.568;25.814;2024-02-21T00:45:50;100775.56;;;-1.92;100.00
59650;BME280;46162;57.568;25.814;2024-02-21T00:48:19;100776.47;;;-1.93;100.00
59650;BME280;46162;57.568;25.814;2024-02-21T00:50:47;100778.88;;;-1.87;100.00
59650;BME280;46162;57.568;25.814;2024-02-21T00:53:16;100785.53;;;-2.18;100.00
59650;BME280;46162;57.568;25.814;2024-02-21T00:55:46;100776.38;;;-2.11;100.00
59650;BME280;46162;57.568;25.814;2024-02-21T00:58:15;100776.31;;;-2.09;100.00
59650;BME280;46162;57.568;25.814;2024-02-21T01:00:43;100775.53;;;-2.11;100.00
59650;BME280;46162;57.568;25.814;2024-02-21T01:03:12;100759.59;;;-2.10;100.00
59650;BME280;46162;57.568;25.814;2024-02-21T01:05:41;100765.03;;;-1.94;100.00
59650;BME280;46162;57.568;25.814;2024-02-21T01:08:09;100762.84;;;-1.84;100.00
59650;BME280;46162;57.568;25.814;2024-02-21T01:10:38;100769.25;;;-1.71;100.00
59650;BME280;46162;57.568;25.814;2024-02-21T01:13:08;100770.78;;;-1.84;100.00
59650;BME280;46162;57.568;25.814;2024-02-21T01:15:37;100760.88;;;-1.81;100.00
59650;BME280;46162;57.568;25.814;2024-02-21T01:18:05;100765.16;;;-2.16;100.00
59650;BME280;46162;57.568;25.814;2024-02-21T01:20:34;100754.94;;;-2.24;100.00
59650;BME280;46162;57.568;25.814;2024-02-21T01:23:03;100762.22;;;-2.29;100.00
59650;BME280;46162;57.568;25.814;2024-02-21T01:25:31;100758.63;;;-2.28;100.00
59650;BME280;46162;57.568;25.814;2024-02-21T01:28:00;100753.06;;;-2.22;100.00
59650;BME280;46162;57.568;25.814;2024-02-21T01:30:30;100756.22;;;-2.13;100.00
59650;BME280;46162;57.568;25.814;2024-02-21T01:32:59;100741.56;;;-2.21;100.00
59650;BME280;46162;57.568;25.814;2024-02-21T01:35:27;100747.59;;;-2.17;100.00
59650;BME280;46162;57.568;25.814;2024-02-21T01:37:56;100748.13;;;-2.10;100.00
59650;BME280;46162;57.568;25.814;2024-02-21T01:40:25;100752.66;;;-2.12;100.00
59650;BME280;46162;57.568;25.814;2024-02-21T01:42:55;100744.28;;;-2.03;100.00
59650;BME280;46162;57.568;25.814;2024-02-21T01:45:24;100748.59;;;-2.01;100.00
59650;BME280;46162;57.568;25.814;2024-02-21T01:47:54;100744.09;;;-1.99;100.00
59650;BME280;46162;57.568;25.814;2024-02-21T01:50:23;100744.81;;;-1.95;100.00
59650;BME280;46162;57.568;25.814;2024-02-21T01:52:52;100748.22;;;-1.93;100.00
59650;BME280;46162;57.568;25.814;2024-02-21T01:55:21;100746.38;;;-1.91;100.00
59650;BME280;46162;57.568;25.814;2024-02-21T01:57:49;100752.75;;;-1.95;100.00
59650;BME280;46162;57.568;25.814;2024-02-21T02:00:18;100732.84;;;-2.04;100.00
59650;BME280;46162;57.568;25.814;2024-02-21T02:02:48;100735.25;;;-2.18;100.00
59650;BME280;46162;57.568;25.814;2024-02-21T02:05:18;100735.34;;;-2.01;100.00
59650;BME280;46162;57.568;25.814;2024-02-21T02:07:48;100739.28;;;-1.90;100.00
59650;BME280;46162;57.568;25.814;2024-02-21T02:10:17;100740.66;;;-2.01;100.00
59650;BME280;46162;57.568;25.814;2024-02-21T02:12:45;100736.44;;;-1.86;100.00
59650;BME280;46162;57.568;25.814;2024-02-21T02:15:14;100738.38;;;-1.89;100.00
59650;BME280;46162;57.568;25.814;2024-02-21T02:17:42;100730.66;;;-1.94;100.00
59650;BME280;46162;57.568;25.814;2024-02-21T02:20:12;100723.06;;;-2.02;100.00
59650;BME280;46162;57.568;25.814;2024-02-21T02:22:43;100725.06;;;-2.07;100.00
59650;BME280;46162;57.568;25.814;2024-02-21T02:25:14;100725.13;;;-2.08;100.00
59650;BME280;46162;57.568;25.814;2024-02-21T02:27:42;100719.84;;;-2.08;100.00
59650;BME280;46162;57.568;25.814;2024-02-21T02:30:12;100720.97;;;-2.14;100.00
59650;BME280;46162;57.568;25.814;2024-02-21T02:32:44;100724.84;;;-1.83;100.00
59650;BME280;46162;57.568;25.814;2024-02-21T02:35:13;100725.28;;;-2.11;100.00
59650;BME280;46162;57.568;25.814;2024-02-21T02:37:48;100719.63;;;-2.04;100.00
59650;BME280;46162;57.568;25.814;2024-02-21T02:40:19;100720.56;;;-2.05;100.00
59650;BME280;46162;57.568;25.814;2024-02-21T02:42:48;100722.13;;;-2.01;100.00
59650;BME280;46162;57.568;25.814;2024-02-21T02:45:17;100716.06;;;-1.84;100.00
59650;BME280;46162;57.568;25.814;2024-02-21T02:47:46;100714.41;;;-1.86;100.00
59650;BME280;46162;57.568;25.814;2024-02-21T02:50:15;100713.97;;;-1.77;100.00
59650;BME280;46162;57.568;25.814;2024-02-21T02:52:44;100710.31;;;-1.93;100.00
59650;BME280;46162;57.568;25.814;2024-02-21T02:55:12;100710.91;;;-1.87;100.00
59650;BME280;46162;57.568;25.814;2024-02-21T02:57:42;100722.66;;;-1.92;100.00
59650;BME280;46162;57.568;25.814;2024-02-21T03:00:12;100717.31;;;-1.74;100.00
59650;BME280;46162;57.568;25.814;2024-02-21T03:02:42;100720.91;;;-1.93;100.00
59650;BME280;46162;57.568;25.814;2024-02-21T03:05:13;100717.06;;;-1.86;100.00
59650;BME280;46162;57.568;25.814;2024-02-21T03:07:43;100715.78;;;-1.97;100.00
59650;BME280;46162;57.568;25.814;2024-02-21T03:10:13;100723.34;;;-2.08;100.00
59650;BME280;46162;57.568;25.814;2024-02-21T03:12:46;100720.69;;;-2.08;100.00
59650;BME280;46162;57.568;25.814;2024-02-21T03:15:17;100714.47;;;-2.07;100.00
59650;BME280;46162;57.568;25.814;2024-02-21T03:17:45;100702.91;;;-2.04;100.00
59650;BME280;46162;57.568;25.814;2024-02-21T03:20:14;100715.28;;;-2.05;100.00
59650;BME280;46162;57.568;25.814;2024-02-21T03:22:43;100714.91;;;-2.16;100.00
59650;BME280;46162;57.568;25.814;2024-02-21T03:25:12;100716.06;;;-2.03;100.00
59650;BME280;46162;57.568;25.814;2024-02-21T03:27:42;100712.00;;;-2.10;100.00
59650;BME280;46162;57.568;25.814;2024-02-21T03:30:13;100708.47;;;-2.10;100.00
59650;BME280;46162;57.568;25.814;2024-02-21T03:32:41;100708.47;;;-1.91;100.00
59650;BME280;46162;57.568;25.814;2024-02-21T03:35:10;100707.47;;;-2.08;100.00
59650;BME280;46162;57.568;25.814;2024-02-21T03:37:38;100703.16;;;-2.10;100.00
59650;BME280;46162;57.568;25.814;2024-02-21T03:40:08;100703.69;;;-2.21;100.00
59650;BME280;46162;57.568;25.814;2024-02-21T03:42:38;100711.59;;;-2.21;100.00
59650;BME280;46162;57.568;25.814;2024-02-21T03:45:07;100707.13;;;-2.19;100.00
59650;BME280;46162;57.568;25.814;2024-02-21T03:47:38;100711.56;;;-2.20;100.00
59650;BME280;46162;57.568;25.814;2024-02-21T03:50:07;100709.16;;;-2.26;100.00
59650;BME280;46162;57.568;25.814;2024-02-21T03:52:36;100702.88;;;-2.23;100.00
59650;BME280;46162;57.568;25.814;2024-02-21T03:55:06;100702.38;;;-2.31;100.00
59650;BME280;46162;57.568;25.814;2024-02-21T03:57:35;100705.63;;;-2.25;100.00
59650;BME280;46162;57.568;25.814;2024-02-21T04:00:05;100709.13;;;-2.24;100.00
59650;BME280;46162;57.568;25.814;2024-02-21T04:02:40;100701.03;;;-2.21;100.00
59650;BME280;46162;57.568;25.814;2024-02-21T04:05:09;100706.16;;;-2.18;100.00
59650;BME280;46162;57.568;25.814;2024-02-21T04:07:42;100705.13;;;-2.14;100.00
59650;BME280;46162;57.568;25.814;2024-02-21T04:10:14;100704.63;;;-2.22;100.00
59650;BME280;46162;57.568;25.814;2024-02-21T04:12:43;100707.25;;;-2.22;100.00
59650;BME280;46162;57.568;25.814;2024-02-21T04:15:11;100697.22;;;-2.16;100.00
59650;BME280;46162;57.568;25.814;2024-02-21T04:17:42;100699.19;;;-2.19;100.00
59650;BME280;46162;57.568;25.814;2024-02-21T04:20:16;100705.97;;;-2.13;100.00
59650;BME280;46162;57.568;25.814;2024-02-21T04:22:47;100703.72;;;-2.23;100.00
59650;BME280;46162;57.568;25.814;2024-02-21T04:25:17;100699.59;;;-2.28;100.00
59650;BME280;46162;57.568;25.814;2024-02-21T04:27:50;100693.44;;;-2.29;100.00
59650;BME280;46162;57.568;25.814;2024-02-21T04:30:19;100702.97;;;-2.25;100.00
59650;BME280;46162;57.568;25.814;2024-02-21T04:32:49;100707.97;;;-2.19;100.00
59650;BME280;46162;57.568;25.814;2024-02-21T04:35:18;100708.47;;;-2.29;100.00
59650;BME280;46162;57.568;25.814;2024-02-21T04:37:52;100708.91;;;-2.20;100.00
59650;BME280;46162;57.568;25.814;2024-02-21T04:40:24;100707.84;;;-1.97;100.00
59650;BME280;46162;57.568;25.814;2024-02-21T04:42:53;100705.59;;;-2.06;100.00
59650;BME280;46162;57.568;25.814;2024-02-21T04:45:22;100707.19;;;-2.02;100.00
59650;BME280;46162;57.568;25.814;2024-02-21T04:47:52;100704.97;;;-1.92;100.00
59650;BME280;46162;57.568;25.814;2024-02-21T04:50:24;100700.63;;;-2.12;100.00
59650;BME280;46162;57.568;25.814;2024-02-21T04:52:57;100700.25;;;-2.04;100.00
59650;BME280;46162;57.568;25.814;2024-02-21T04:55:26;100692.16;;;-2.20;100.00
59650;BME280;46162;57.568;25.814;2024-02-21T04:57:55;100692.44;;;-2.26;100.00
59650;BME280;46162;57.568;25.814;2024-02-21T05:00:24;100694.75;;;-2.19;100.00
59650;BME280;46162;57.568;25.814;2024-02-21T05:02:55;100688.44;;;-2.16;100.00
59650;BME280;46162;57.568;25.814;2024-02-21T05:05:23;100694.81;;;-2.20;100.00
59650;BME280;46162;57.568;25.814;2024-02-21T05:07:52;100697.19;;;-2.14;100.00
59650;BME280;46162;57.568;25.814;2024-02-21T05:10:21;100691.91;;;-1.95;100.00
59650;BME280;46162;57.568;25.814;2024-02-21T05:12:53;100689.31;;;-1.97;100.00
59650;BME280;46162;57.568;25.814;2024-02-21T05:15:25;100684.22;;;-2.01;100.00
59650;BME280;46162;57.568;25.814;2024-02-21T05:17:56;100676.88;;;-2.13;100.00
59650;BME280;46162;57.568;25.814;2024-02-21T05:20:25;100681.16;;;-2.11;100.00
59650;BME280;46162;57.568;25.814;2024-02-21T05:22:54;100672.56;;;-2.16;100.00
59650;BME280;46162;57.568;25.814;2024-02-21T05:25:23;100684.75;;;-2.12;100.00
59650;BME280;46162;57.568;25.814;2024-02-21T05:27:52;100685.38;;;-2.07;100.00
59650;BME280;46162;57.568;25.814;2024-02-21T05:30:26;100680.31;;;-2.11;100.00
59650;BME280;46162;57.568;25.814;2024-02-21T05:33:04;100675.16;;;-2.14;100.00
59650;BME280;46162;57.568;25.814;2024-02-21T05:35:34;100674.59;;;-2.21;100.00
59650;BME280;46162;57.568;25.814;2024-02-21T05:38:05;100676.44;;;-2.04;100.00
59650;BME280;46162;57.568;25.814;2024-02-21T05:40:39;100676.88;;;-2.13;100.00
59650;BME280;46162;57.568;25.814;2024-02-21T05:43:11;100678.88;;;-2.19;100.00
59650;BME280;46162;57.568;25.814;2024-02-21T05:45:45;100672.38;;;-2.11;100.00
59650;BME280;46162;57.568;25.814;2024-02-21T05:48:24;100676.00;;;-2.14;100.00
59650;BME280;46162;57.568;25.814;2024-02-21T05:50:55;100668.28;;;-2.19;100.00
59650;BME280;46162;57.568;25.814;2024-02-21T05:53:24;100672.44;;;-2.13;100.00
59650;BME280;46162;57.568;25.814;2024-02-21T05:55:53;100676.16;;;-2.17;100.00
59650;BME280;46162;57.568;25.814;2024-02-21T05:58:24;100664.78;;;-2.19;100.00
59650;BME280;46162;57.568;25.814;2024-02-21T06:00:53;100651.84;;;-2.06;100.00
59650;BME280;46162;57.568;25.814;2024-02-21T06:03:24;100658.00;;;-2.06;100.00
59650;BME280;46162;57.568;25.814;2024-02-21T06:05:53;100651.53;;;-1.81;100.00
59650;BME280;46162;57.568;25.814;2024-02-21T06:08:22;100654.50;;;-1.87;100.00
59650;BME280;46162;57.568;25.814;2024-02-21T06:10:51;100653.53;;;-1.67;100.00
59650;BME280;46162;57.568;25.814;2024-02-21T06:13:23;100649.09;;;-1.86;100.00
59650;BME280;46162;57.568;25.814;2024-02-21T06:15:55;100650.63;;;-1.80;100.00
59650;BME280;46162;57.568;25.814;2024-02-21T06:18:35;100653.84;;;-1.92;100.00
59650;BME280;46162;57.568;25.814;2024-02-21T06:21:05;100651.38;;;-1.78;100.00
59650;BME280;46162;57.568;25.814;2024-02-21T06:23:34;100659.19;;;-1.94;100.00
59650;BME280;46162;57.568;25.814;2024-02-21T06:26:06;100667.72;;;-1.87;100.00
59650;BME280;46162;57.568;25.814;2024-02-21T06:28:37;100675.28;;;-1.99;100.00
59650;BME280;46162;57.568;25.814;2024-02-21T06:31:06;100671.63;;;-1.96;100.00
59650;BME280;46162;57.568;25.814;2024-02-21T06:33:39;100662.69;;;-1.93;100.00
59650;BME280;46162;57.568;25.814;2024-02-21T06:36:09;100660.63;;;-1.87;100.00
59650;BME280;46162;57.568;25.814;2024-02-21T06:38:37;100664.75;;;-1.81;100.00
59650;BME280;46162;57.568;25.814;2024-02-21T06:41:15;100661.69;;;-1.72;100.00
59650;BME280;46162;57.568;25.814;2024-02-21T06:43:46;100669.06;;;-1.79;100.00
59650;BME280;46162;57.568;25.814;2024-02-21T06:46:23;100674.28;;;-1.77;100.00
59650;BME280;46162;57.568;25.814;2024-02-21T06:48:54;100655.66;;;-1.76;100.00
59650;BME280;46162;57.568;25.814;2024-02-21T06:51:24;100658.19;;;-1.73;100.00
59650;BME280;46162;57.568;25.814;2024-02-21T06:53:53;100656.06;;;-1.66;100.00
59650;BME280;46162;57.568;25.814;2024-02-21T06:56:24;100652.38;;;-1.81;100.00
59650;BME280;46162;57.568;25.814;2024-02-21T06:58:56;100659.16;;;-1.92;100.00
59650;BME280;46162;57.568;25.814;2024-02-21T07:01:25;100651.13;;;-1.91;100.00
59650;BME280;46162;57.568;25.814;2024-02-21T07:03:55;100649.19;;;-1.87;100.00
59650;BME280;46162;57.568;25.814;2024-02-21T07:06:24;100642.81;;;-1.83;100.00
59650;BME280;46162;57.568;25.814;2024-02-21T07:08:53;100644.09;;;-1.73;100.00
59650;BME280;46162;57.568;25.814;2024-02-21T07:11:22;100647.91;;;-1.61;100.00
59650;BME280;46162;57.568;25.814;2024-02-21T07:13:51;100638.34;;;-1.64;100.00
59650;BME280;46162;57.568;25.814;2024-02-21T07:16:20;100642.84;;;-1.66;100.00
59650;BME280;46162;57.568;25.814;2024-02-21T07:18:55;100638.66;;;-1.70;100.00
59650;BME280;46162;57.568;25.814;2024-02-21T07:21:24;100640.34;;;-1.69;100.00
59650;BME280;46162;57.568;25.814;2024-02-21T07:23:52;100639.09;;;-1.79;100.00
59650;BME280;46162;57.568;25.814;2024-02-21T07:26:21;100641.06;;;-1.65;100.00
59650;BME280;46162;57.568;25.814;2024-02-21T07:28:50;100644.19;;;-1.57;100.00
59650;BME280;46162;57.568;25.814;2024-02-21T07:31:19;100633.44;;;-1.54;100.00
59650;BME280;46162;57.568;25.814;2024-02-21T07:33:47;100629.00;;;-1.36;100.00
59650;BME280;46162;57.568;25.814;2024-02-21T07:36:27;100637.63;;;-1.31;100.00
59650;BME280;46162;57.568;25.814;2024-02-21T07:38:56;100642.88;;;-1.48;100.00
59650;BME280;46162;57.568;25.814;2024-02-21T07:41:25;100643.44;;;-1.42;100.00
59650;BME280;46162;57.568;25.814;2024-02-21T07:43:55;100643.53;;;-1.43;100.00
59650;BME280;46162;57.568;25.814;2024-02-21T07:46:25;100643.34;;;-1.40;100.00
59650;BME280;46162;57.568;25.814;2024-02-21T07:48:54;100644.84;;;-1.35;100.00
59650;BME280;46162;57.568;25.814;2024-02-21T07:51:27;100638.31;;;-1.27;100.00
59650;BME280;46162;57.568;25.814;2024-02-21T07:53:56;100636.50;;;-1.27;100.00
59650;BME280;46162;57.568;25.814;2024-02-21T07:56:28;100638.91;;;-1.22;100.00
59650;BME280;46162;57.568;25.814;2024-02-21T07:58:57;100637.34;;;-1.26;100.00
59650;BME280;46162;57.568;25.814;2024-02-21T08:01:26;100631.44;;;-1.14;100.00
59650;BME280;46162;57.568;25.814;2024-02-21T08:03:55;100637.75;;;-1.17;100.00
59650;BME280;46162;57.568;25.814;2024-02-21T08:06:25;100626.28;;;-1.17;100.00
59650;BME280;46162;57.568;25.814;2024-02-21T08:08:54;100623.88;;;-1.22;100.00
59650;BME280;46162;57.568;25.814;2024-02-21T08:11:24;100624.72;;;-1.21;100.00
59650;BME280;46162;57.568;25.814;2024-02-21T08:13:53;100621.06;;;-1.19;100.00
59650;BME280;46162;57.568;25.814;2024-02-21T08:16:22;100630.56;;;-1.15;100.00
59650;BME280;46162;57.568;25.814;2024-02-21T08:18:52;100621.63;;;-1.30;100.00
59650;BME280;46162;57.568;25.814;2024-02-21T08:21:21;100640.25;;;-1.31;100.00
59650;BME280;46162;57.568;25.814;2024-02-21T08:23:51;100638.38;;;-1.29;100.00
59650;BME280;46162;57.568;25.814;2024-02-21T08:26:21;100641.97;;;-1.30;100.00
59650;BME280;46162;57.568;25.814;2024-02-21T08:28:50;100632.00;;;-1.25;100.00
59650;BME280;46162;57.568;25.814;2024-02-21T08:31:19;100642.25;;;-1.19;100.00
59650;BME280;46162;57.568;25.814;2024-02-21T08:33:50;100637.13;;;-1.22;100.00
59650;BME280;46162;57.568;25.814;2024-02-21T08:36:19;100637.91;;;-1.20;100.00
59650;BME280;46162;57.568;25.814;2024-02-21T08:38:48;100634.97;;;-1.14;100.00
59650;BME280;46162;57.568;25.814;2024-02-21T08:41:18;100638.06;;;-1.23;100.00
59650;BME280;46162;57.568;25.814;2024-02-21T08:43:52;100631.38;;;-1.13;100.00
59650;BME280;46162;57.568;25.814;2024-02-21T08:46:22;100634.78;;;-1.11;100.00
59650;BME280;46162;57.568;25.814;2024-02-21T08:48:51;100638.91;;;-1.05;100.00
59650;BME280;46162;57.568;25.814;2024-02-21T08:51:21;100642.28;;;-1.01;100.00
59650;BME280;46162;57.568;25.814;2024-02-21T08:53:49;100638.84;;;-1.03;100.00
59650;BME280;46162;57.568;25.814;2024-02-21T08:56:20;100641.63;;;-0.89;100.00
59650;BME280;46162;57.568;25.814;2024-02-21T08:58:49;100636.31;;;-0.89;100.00
59650;BME280;46162;57.568;25.814;2024-02-21T09:01:18;100646.06;;;-0.90;100.00
59650;BME280;46162;57.568;25.814;2024-02-21T09:03:46;100636.47;;;-0.92;100.00
59650;BME280;46162;57.568;25.814;2024-02-21T09:06:15;100640.63;;;-0.87;100.00
59650;BME280;46162;57.568;25.814;2024-02-21T09:08:44;100642.72;;;-0.93;100.00
59650;BME280;46162;57.568;25.814;2024-02-21T09:11:13;100638.22;;;-0.91;100.00
59650;BME280;46162;57.568;25.814;2024-02-21T09:13:43;100641.09;;;-0.96;100.00
59650;BME280;46162;57.568;25.814;2024-02-21T09:16:12;100634.78;;;-0.93;100.00
59650;BME280;46162;57.568;25.814;2024-02-21T09:18:41;100631.00;;;-0.89;100.00
59650;BME280;46162;57.568;25.814;2024-02-21T09:21:11;100623.41;;;-0.95;100.00
59650;BME280;46162;57.568;25.814;2024-02-21T09:23:39;100630.88;;;-0.86;100.00
59650;BME280;46162;57.568;25.814;2024-02-21T09:26:08;100634.91;;;-0.79;100.00
59650;BME280;46162;57.568;25.814;2024-02-21T09:28:41;100627.47;;;-0.72;100.00
59650;BME280;46162;57.568;25.814;2024-02-21T09:31:11;100626.47;;;-0.70;100.00
59650;BME280;46162;57.568;25.814;2024-02-21T09:33:40;100614.16;;;-0.71;100.00
59650;BME280;46162;57.568;25.814;2024-02-21T09:36:09;100625.72;;;-0.72;100.00
59650;BME280;46162;57.568;25.814;2024-02-21T09:38:39;100619.41;;;-0.53;100.00
59650;BME280;46162;57.568;25.814;2024-02-21T09:41:15;100626.16;;;-0.48;100.00
59650;BME280;46162;57.568;25.814;2024-02-21T09:43:51;100618.13;;;-0.46;100.00
59650;BME280;46162;57.568;25.814;2024-02-21T09:46:37;100615.91;;;-0.54;100.00
59650;BME280;46162;57.568;25.814;2024-02-21T09:49:26;100621.63;;;-0.61;100.00
59650;BME280;46162;57.568;25.814;2024-02-21T09:52:01;100606.81;;;-0.66;100.00
59650;BME280;46162;57.568;25.814;2024-02-21T09:54:34;100606.28;;;-0.72;100.00
59650;BME280;46162;57.568;25.814;2024-02-21T09:57:03;100606.28;;;-0.72;100.00
59650;BME280;46162;57.568;25.814;2024-02-21T09:59:33;100599.94;;;-0.70;100.00
59650;BME280;46162;57.568;25.814;2024-02-21T10:02:03;100604.31;;;-0.69;100.00
59650;BME280;46162;57.568;25.814;2024-02-21T10:04:33;100600.91;;;-0.71;100.00
59650;BME280;46162;57.568;25.814;2024-02-21T10:07:02;100602.72;;;-0.55;100.00
59650;BME280;46162;57.568;25.814;2024-02-21T10:09:31;100586.50;;;-0.49;100.00
59650;BME280;46162;57.568;25.814;2024-02-21T10:12:18;100592.81;;;-0.52;100.00
59650;BME280;46162;57.568;25.814;2024-02-21T10:14:47;100592.09;;;-0.55;100.00
59650;BME280;46162;57.568;25.814;2024-02-21T10:17:18;100590.72;;;-0.62;100.00
59650;BME280;46162;57.568;25.814;2024-02-21T10:19:47;100584.25;;;-0.57;100.00
59650;BME280;46162;57.568;25.814;2024-02-21T10:22:19;100585.34;;;-0.45;100.00
59650;BME280;46162;57.568;25.814;2024-02-21T10:24:49;100577.16;;;-0.40;100.00
59650;BME280;46162;57.568;25.814;2024-02-21T10:27:18;100584.09;;;-0.38;100.00
59650;BME280;46162;57.568;25.814;2024-02-21T10:29:49;100577.56;;;-0.32;100.00
59650;BME280;46162;57.568;25.814;2024-02-21T10:32:19;100566.56;;;-0.25;100.00
59650;BME280;46162;57.568;25.814;2024-02-21T10:34:50;100566.88;;;-0.15;100.00
59650;BME280;46162;57.568;25.814;2024-02-21T10:37:20;100565.59;;;-0.08;100.00
59650;BME280;46162;57.568;25.814;2024-02-21T10:39:49;100565.50;;;-0.06;100.00
59650;BME280;46162;57.568;25.814;2024-02-21T10:42:21;100560.97;;;-0.04;100.00
59650;BME280;46162;57.568;25.814;2024-02-21T10:44:51;100566.38;;;-0.06;100.00
59650;BME280;46162;57.568;25.814;2024-02-21T10:47:23;100560.97;;;-0.04;100.00
59650;BME280;46162;57.568;25.814;2024-02-21T10:49:59;100561.16;;;-0.07;100.00
59650;BME280;46162;57.568;25.814;2024-02-21T10:52:43;100563.97;;;-0.10;100.00
59650;BME280;46162;57.568;25.814;2024-02-21T10:55:20;100550.28;;;-0.18;100.00
59650;BME280;46162;57.568;25.814;2024-02-21T10:57:51;100552.59;;;-0.12;100.00
59650;BME280;46162;57.568;25.814;2024-02-21T11:00:20;100549.31;;;-0.17;100.00
59650;BME280;46162;57.568;25.814;2024-02-21T11:02:56;100548.81;;;-0.08;100.00
59650;BME280;46162;57.568;25.814;2024-02-21T11:05:25;100557.22;;;-0.16;100.00
59650;BME280;46162;57.568;25.814;2024-02-21T11:07:56;100548.75;;;-0.23;100.00
59650;BME280;46162;57.568;25.814;2024-02-21T11:10:26;100547.22;;;-0.27;100.00
59650;BME280;46162;57.568;25.814;2024-02-21T11:13:05;100547.22;;;-0.27;100.00
59650;BME280;46162;57.568;25.814;2024-02-21T11:15:34;100543.00;;;-0.31;100.00
59650;BME280;46162;57.568;25.814;2024-02-21T11:18:05;100537.72;;;-0.31;100.00
59650;BME280;46162;57.568;25.814;2024-02-21T11:20:34;100528.78;;;-0.30;100.00
59650;BME280;46162;57.568;25.814;2024-02-21T11:23:04;100518.38;;;-0.33;100.00
59650;BME280;46162;57.568;25.814;2024-02-21T11:25:34;100525.75;;;-0.22;100.00
59650;BME280;46162;57.568;25.814;2024-02-21T11:28:04;100520.16;;;-0.17;100.00
59650;BME280;46162;57.568;25.814;2024-02-21T11:30:36;100518.63;;;-0.22;100.00
59650;BME280;46162;57.568;25.814;2024-02-21T11:33:07;100510.47;;;-0.18;100.00
59650;BME280;46162;57.568;25.814;2024-02-21T11:35:36;100517.34;;;-0.14;100.00
59650;BME280;46162;57.568;25.814;2024-02-21T11:38:09;100518.84;;;-0.10;100.00
59650;BME280;46162;57.568;25.814;2024-02-21T11:40:42;100509.28;;;-0.13;100.00
59650;BME280;46162;57.568;25.814;2024-02-21T11:43:10;100505.84;;;-0.15;100.00
59650;BME280;46162;57.568;25.814;2024-02-21T11:45:39;100502.94;;;-0.10;100.00
59650;BME280;46162;57.568;25.814;2024-02-21T11:48:09;100496.69;;;-0.09;100.00
59650;BME280;46162;57.568;25.814;2024-02-21T11:50:38;100504.66;;;-0.09;100.00
59650;BME280;46162;57.568;25.814;2024-02-21T11:53:07;100494.03;;;-0.09;100.00
59650;BME280;46162;57.568;25.814;2024-02-21T11:55:36;100505.50;;;-0.09;100.00
59650;BME280;46162;57.568;25.814;2024-02-21T11:58:05;100501.16;;;-0.10;100.00
59650;BME280;46162;57.568;25.814;2024-02-21T12:00:34;100491.59;;;0.02;100.00
59650;BME280;46162;57.568;25.814;2024-02-21T12:03:04;100487.25;;;0.01;100.00
59650;BME280;46162;57.568;25.814;2024-02-21T12:05:35;100479.63;;;-0.05;100.00
59650;BME280;46162;57.568;25.814;2024-02-21T12:08:05;100480.13;;;0.02;100.00
59650;BME280;46162;57.568;25.814;2024-02-21T12:10:35;100483.06;;;-0.03;100.00
59650;BME280;46162;57.568;25.814;2024-02-21T12:13:07;100481.69;;;-0.10;100.00
59650;BME280;46162;57.568;25.814;2024-02-21T12:15:38;100484.94;;;-0.05;100.00
59650;BME280;46162;57.568;25.814;2024-02-21T12:18:07;100473.94;;;-0.13;100.00
59650;BME280;46162;57.568;25.814;2024-02-21T12:20:37;100476.25;;;-0.07;100.00
59650;BME280;46162;57.568;25.814;2024-02-21T12:23:10;100472.81;;;-0.09;100.00
59650;BME280;46162;57.568;25.814;2024-02-21T12:25:40;100478.91;;;-0.07;100.00
59650;BME280;46162;57.568;25.814;2024-02-21T12:28:10;100482.41;;;-0.07;100.00
59650;BME280;46162;57.568;25.814;2024-02-21T12:30:39;100478.84;;;-0.22;100.00
59650;BME280;46162;57.568;25.814;2024-02-21T12:33:10;100466.00;;;-0.29;100.00
59650;BME280;46162;57.568;25.814;2024-02-21T12:35:40;100467.78;;;-0.30;100.00
59650;BME280;46162;57.568;25.814;2024-02-21T12:38:09;100468.22;;;-0.37;100.00
59650;BME280;46162;57.568;25.814;2024-02-21T12:40:39;100477.66;;;-0.32;100.00
59650;BME280;46162;57.568;25.814;2024-02-21T12:43:07;100469.59;;;-0.30;100.00
59650;BME280;46162;57.568;25.814;2024-02-21T12:45:37;100471.66;;;-0.35;100.00